Terminal Aerodrome Forecast
Issued by NWS Charleston, SC

Home | Current Version | Previous Version | Text Only | Print | Product List | Glossary On
Versions: 1 2 3 4 5 6 7 8 9 10 11 12 13 14 15 16 17 18
396
FTUS42 KCHS 271125
TAFCHS
TAF
KCHS 271125Z 2712/2812 19007KT P6SM SKC
     FM271400 20010KT P6SM FEW035 SCT250
     FM271600 19014G23KT P6SM SCT050 SCT250
     FM280100 19010KT P6SM SCT010
      TEMPO 2809/2812 21005KT 6SM BR BKN008=

USA.gov is the U.S. government's official web portal to all federal, state and local government web resources and services.